sensor_id;sensor_type;location;lat;lon;timestamp;pressure;altitude;pressure_sealevel;temperature;humidity
22389;BME280;11362;48.102;11.620;2023-07-02T00:01:41;94718.00;;;25.07;42.90
22389;BME280;11362;48.102;11.620;2023-07-02T00:04:07;94724.69;;;25.09;42.78
22389;BME280;11362;48.102;11.620;2023-07-02T00:06:32;94714.00;;;25.08;42.90
22389;BME280;11362;48.102;11.620;2023-07-02T00:08:57;94714.78;;;25.08;42.93
22389;BME280;11362;48.102;11.620;2023-07-02T00:11:23;94718.31;;;25.09;42.95
22389;BME280;11362;48.102;11.620;2023-07-02T00:13:48;94717.56;;;25.08;43.00
22389;BME280;11362;48.102;11.620;2023-07-02T00:16:13;94709.22;;;25.08;42.96
22389;BME280;11362;48.102;11.620;2023-07-02T00:18:38;94719.56;;;25.08;43.03
22389;BME280;11362;48.102;11.620;2023-07-02T00:21:05;94714.78;;;25.08;42.86
22389;BME280;11362;48.102;11.620;2023-07-02T00:23:30;94716.78;;;25.08;43.20
22389;BME280;11362;48.102;11.620;2023-07-02T00:25:59;94717.56;;;25.08;43.08
22389;BME280;11362;48.102;11.620;2023-07-02T00:28:24;94713.22;;;25.07;43.05
22389;BME280;11362;48.102;11.620;2023-07-02T00:30:49;94731.88;;;25.07;43.09
22389;BME280;11362;48.102;11.620;2023-07-02T00:33:15;94733.44;;;25.08;43.23
22389;BME280;11362;48.102;11.620;2023-07-02T00:35:40;94734.25;;;25.08;43.27
22389;BME280;11362;48.102;11.620;2023-07-02T00:38:06;94741.03;;;25.07;43.19
22389;BME280;11362;48.102;11.620;2023-07-02T00:40:31;94731.88;;;25.07;43.37
22389;BME280;11362;48.102;11.620;2023-07-02T00:42:56;94742.22;;;25.06;43.41
22389;BME280;11362;48.102;11.620;2023-07-02T00:45:22;94742.56;;;25.08;43.20
22389;BME280;11362;48.102;11.620;2023-07-02T00:47:48;94728.69;;;25.08;43.24
22389;BME280;11362;48.102;11.620;2023-07-02T00:50:13;94742.13;;;25.10;43.30
22389;BME280;11362;48.102;11.620;2023-07-02T00:52:39;94730.66;;;25.08;43.53
22389;BME280;11362;48.102;11.620;2023-07-02T00:55:04;94720.34;;;25.08;43.60
22389;BME280;11362;48.102;11.620;2023-07-02T00:57:30;94734.25;;;25.08;43.49
22389;BME280;11362;48.102;11.620;2023-07-02T00:59:57;94737.03;;;25.08;43.36
22389;BME280;11362;48.102;11.620;2023-07-02T01:02:23;94734.25;;;25.08;43.68
22389;BME280;11362;48.102;11.620;2023-07-02T01:04:48;94737.44;;;25.07;43.18
22389;BME280;11362;48.102;11.620;2023-07-02T01:07:13;94727.88;;;25.08;43.19
22389;BME280;11362;48.102;11.620;2023-07-02T01:09:39;94738.25;;;25.07;43.49
22389;BME280;11362;48.102;11.620;2023-07-02T01:12:07;94744.56;;;25.08;43.55
22389;BME280;11362;48.102;11.620;2023-07-02T01:14:44;94741.34;;;25.09;43.65
22389;BME280;11362;48.102;11.620;2023-07-02T01:17:12;94744.13;;;25.09;43.61
22389;BME280;11362;48.102;11.620;2023-07-02T01:19:45;94752.47;;;25.09;43.28
22389;BME280;11362;48.102;11.620;2023-07-02T01:22:12;94743.81;;;25.07;43.67
22389;BME280;11362;48.102;11.620;2023-07-02T01:24:41;94747.78;;;25.06;43.79
22389;BME280;11362;48.102;11.620;2023-07-02T01:27:07;94743.81;;;25.07;43.72
22389;BME280;11362;48.102;11.620;2023-07-02T01:29:32;94742.66;;;25.05;44.03
22389;BME280;11362;48.102;11.620;2023-07-02T01:31:57;94744.66;;;25.04;43.80
22389;BME280;11362;48.102;11.620;2023-07-02T01:34:23;94751.00;;;25.05;43.69
22389;BME280;11362;48.102;11.620;2023-07-02T01:36:48;94742.66;;;25.05;43.49
22389;BME280;11362;48.102;11.620;2023-07-02T01:39:13;94741.88;;;25.04;43.75
22389;BME280;11362;48.102;11.620;2023-07-02T01:41:44;94751.78;;;25.05;43.89
22389;BME280;11362;48.102;11.620;2023-07-02T01:44:09;94752.22;;;25.04;43.70
22389;BME280;11362;48.102;11.620;2023-07-02T01:46:35;94751.44;;;25.03;43.61
22389;BME280;11362;48.102;11.620;2023-07-02T01:49:00;94750.53;;;25.06;43.30
22389;BME280;11362;48.102;11.620;2023-07-02T01:51:25;94747.78;;;25.06;43.60
22389;BME280;11362;48.102;11.620;2023-07-02T01:53:50;94743.44;;;25.05;43.68
22389;BME280;11362;48.102;11.620;2023-07-02T01:56:16;94747.00;;;25.06;43.39
22389;BME280;11362;48.102;11.620;2023-07-02T01:58:41;94750.53;;;25.06;44.00
22389;BME280;11362;48.102;11.620;2023-07-02T02:01:06;94753.31;;;25.06;43.50
22389;BME280;11362;48.102;11.620;2023-07-02T02:03:31;94747.78;;;25.06;43.58
22389;BME280;11362;48.102;11.620;2023-07-02T02:05:57;94747.00;;;25.06;43.32
22389;BME280;11362;48.102;11.620;2023-07-02T02:08:22;94751.00;;;25.05;43.78
22389;BME280;11362;48.102;11.620;2023-07-02T02:10:47;94750.13;;;25.08;43.46
22389;BME280;11362;48.102;11.620;2023-07-02T02:13:13;94742.22;;;25.06;43.41
22389;BME280;11362;48.102;11.620;2023-07-02T02:15:38;94750.13;;;25.08;43.70
22389;BME280;11362;48.102;11.620;2023-07-02T02:18:03;94747.34;;;25.08;43.53
22389;BME280;11362;48.102;11.620;2023-07-02T02:20:28;94745.34;;;25.08;43.48
22389;BME280;11362;48.102;11.620;2023-07-02T02:22:54;94748.13;;;25.08;43.68
22389;BME280;11362;48.102;11.620;2023-07-02T02:25:19;94743.81;;;25.07;43.67
22389;BME280;11362;48.102;11.620;2023-07-02T02:27:44;94749.34;;;25.07;43.41
22389;BME280;11362;48.102;11.620;2023-07-02T02:30:10;94749.34;;;25.07;43.73
22389;BME280;11362;48.102;11.620;2023-07-02T02:32:35;94751.34;;;25.07;43.81
22389;BME280;11362;48.102;11.620;2023-07-02T02:35:00;94749.34;;;25.07;43.86
22389;BME280;11362;48.102;11.620;2023-07-02T02:37:26;94749.00;;;25.05;43.74
22389;BME280;11362;48.102;11.620;2023-07-02T02:39:51;94748.22;;;25.05;43.74
22389;BME280;11362;48.102;11.620;2023-07-02T02:42:16;94749.34;;;25.07;43.89
22389;BME280;11362;48.102;11.620;2023-07-02T02:44:42;94745.00;;;25.06;43.58
22389;BME280;11362;48.102;11.620;2023-07-02T02:47:07;94747.44;;;25.04;43.64
22389;BME280;11362;48.102;11.620;2023-07-02T02:49:32;94749.00;;;25.05;43.93
22389;BME280;11362;48.102;11.620;2023-07-02T02:51:57;94747.00;;;25.06;43.94
22389;BME280;11362;48.102;11.620;2023-07-02T02:54:23;94749.00;;;25.05;43.77
22389;BME280;11362;48.102;11.620;2023-07-02T02:56:48;94745.44;;;25.05;43.76
22389;BME280;11362;48.102;11.620;2023-07-02T02:59:13;94747.78;;;25.06;43.58
22389;BME280;11362;48.102;11.620;2023-07-02T03:01:39;94747.00;;;25.06;43.55
22389;BME280;11362;48.102;11.620;2023-07-02T03:04:04;94747.00;;;25.06;43.74
22389;BME280;11362;48.102;11.620;2023-07-02T03:06:29;94748.66;;;25.03;43.89
22389;BME280;11362;48.102;11.620;2023-07-02T03:08:54;94753.41;;;25.03;43.78
22389;BME280;11362;48.102;11.620;2023-07-02T03:11:20;94752.66;;;25.02;43.94
22389;BME280;11362;48.102;11.620;2023-07-02T03:13:45;94754.22;;;25.03;43.83
22389;BME280;11362;48.102;11.620;2023-07-02T03:16:10;94762.97;;;25.02;43.67
22389;BME280;11362;48.102;11.620;2023-07-02T03:18:35;94768.09;;;25.03;43.94
22389;BME280;11362;48.102;11.620;2023-07-02T03:21:01;94773.25;;;25.05;44.00
22389;BME280;11362;48.102;11.620;2023-07-02T03:23:26;94768.09;;;25.03;43.91
22389;BME280;11362;48.102;11.620;2023-07-02T03:25:51;94774.88;;;25.02;43.84
22389;BME280;11362;48.102;11.620;2023-07-02T03:28:17;94764.53;;;25.03;44.06
22389;BME280;11362;48.102;11.620;2023-07-02T03:30:42;94769.34;;;25.02;43.95
22389;BME280;11362;48.102;11.620;2023-07-02T03:33:08;94813.78;;;25.02;44.15
22389;BME280;11362;48.102;11.620;2023-07-02T03:35:34;94820.13;;;25.03;44.07
22389;BME280;11362;48.102;11.620;2023-07-02T03:37:59;94825.69;;;25.03;44.23
22389;BME280;11362;48.102;11.620;2023-07-02T03:40:24;94843.16;;;25.03;44.09
22389;BME280;11362;48.102;11.620;2023-07-02T03:42:51;94838.81;;;25.02;44.15
22389;BME280;11362;48.102;11.620;2023-07-02T03:45:16;94849.50;;;25.04;44.20
22389;BME280;11362;48.102;11.620;2023-07-02T03:47:41;94854.25;;;25.03;43.95
22389;BME280;11362;48.102;11.620;2023-07-02T03:50:08;94865.38;;;25.03;43.93
22389;BME280;11362;48.102;11.620;2023-07-02T03:52:33;94863.38;;;25.04;44.11
22389;BME280;11362;48.102;11.620;2023-07-02T03:54:59;94862.16;;;25.05;43.95
22389;BME280;11362;48.102;11.620;2023-07-02T03:57:24;94861.38;;;25.04;44.02
22389;BME280;11362;48.102;11.620;2023-07-02T03:59:49;94865.38;;;25.03;44.19
22389;BME280;11362;48.102;11.620;2023-07-02T04:02:15;94864.56;;;25.03;44.24
22389;BME280;11362;48.102;11.620;2023-07-02T04:04:40;94875.28;;;25.04;44.02
22389;BME280;11362;48.102;11.620;2023-07-02T04:07:05;94873.72;;;25.03;44.30
22389;BME280;11362;48.102;11.620;2023-07-02T04:09:30;94868.94;;;25.04;43.96
22389;BME280;11362;48.102;11.620;2023-07-02T04:11:56;94868.56;;;25.02;44.07
22389;BME280;11362;48.102;11.620;2023-07-02T04:14:21;94865.38;;;25.03;43.93
22389;BME280;11362;48.102;11.620;2023-07-02T04:16:46;94869.38;;;25.02;43.98
22389;BME280;11362;48.102;11.620;2023-07-02T04:19:11;94876.50;;;25.03;43.91
22389;BME280;11362;48.102;11.620;2023-07-02T04:21:37;94881.25;;;25.03;44.13
22389;BME280;11362;48.102;11.620;2023-07-02T04:24:02;94874.94;;;25.02;43.99
22389;BME280;11362;48.102;11.620;2023-07-02T04:26:27;94879.69;;;25.02;43.71
22389;BME280;11362;48.102;11.620;2023-07-02T04:28:53;94874.94;;;25.02;44.11
22389;BME280;11362;48.102;11.620;2023-07-02T04:31:19;94877.72;;;25.02;43.86
22389;BME280;11362;48.102;11.620;2023-07-02T04:33:44;94873.72;;;25.03;43.81
22389;BME280;11362;48.102;11.620;2023-07-02T04:36:09;94868.56;;;25.02;43.99
22389;BME280;11362;48.102;11.620;2023-07-02T04:38:35;94867.81;;;25.01;43.98
22389;BME280;11362;48.102;11.620;2023-07-02T04:41:00;94865.03;;;25.01;44.04
22389;BME280;11362;48.102;11.620;2023-07-02T04:43:25;94878.03;;;25.04;43.99
22389;BME280;11362;48.102;11.620;2023-07-02T04:45:50;94869.72;;;25.04;43.77
22389;BME280;11362;48.102;11.620;2023-07-02T04:48:16;94873.28;;;25.05;43.90
22389;BME280;11362;48.102;11.620;2023-07-02T04:50:41;94863.81;;;25.02;43.82
22389;BME280;11362;48.102;11.620;2023-07-02T04:53:07;94861.81;;;25.03;44.05
22389;BME280;11362;48.102;11.620;2023-07-02T04:55:32;94872.16;;;25.02;44.19
22389;BME280;11362;48.102;11.620;2023-07-02T04:57:57;94865.03;;;25.01;44.05
22389;BME280;11362;48.102;11.620;2023-07-02T05:00:22;94868.56;;;25.02;44.05
22389;BME280;11362;48.102;11.620;2023-07-02T05:02:48;94879.69;;;25.02;44.01
22389;BME280;11362;48.102;11.620;2023-07-02T05:05:13;94880.91;;;25.01;44.23
22389;BME280;11362;48.102;11.620;2023-07-02T05:07:40;94884.03;;;25.03;43.76
22389;BME280;11362;48.102;11.620;2023-07-02T05:10:06;94880.50;;;25.02;43.78
22389;BME280;11362;48.102;11.620;2023-07-02T05:12:31;94885.25;;;25.02;44.10
22389;BME280;11362;48.102;11.620;2023-07-02T05:14:56;94892.38;;;25.03;43.97
22389;BME280;11362;48.102;11.620;2023-07-02T05:17:22;94893.59;;;25.02;44.14
22389;BME280;11362;48.102;11.620;2023-07-02T05:19:47;94887.59;;;25.03;44.09
22389;BME280;11362;48.102;11.620;2023-07-02T05:22:12;94891.59;;;25.02;43.87
22389;BME280;11362;48.102;11.620;2023-07-02T05:24:37;94897.94;;;25.03;44.11
22389;BME280;11362;48.102;11.620;2023-07-02T05:27:04;94887.59;;;25.03;43.89
22389;BME280;11362;48.102;11.620;2023-07-02T05:29:29;94890.38;;;25.03;44.03
22389;BME280;11362;48.102;11.620;2023-07-02T05:31:55;94900.28;;;25.04;43.99
22389;BME280;11362;48.102;11.620;2023-07-02T05:34:20;94897.16;;;25.02;43.88
22389;BME280;11362;48.102;11.620;2023-07-02T05:36:45;94896.38;;;25.02;44.08
22389;BME280;11362;48.102;11.620;2023-07-02T05:39:11;94897.16;;;25.02;44.04
22389;BME280;11362;48.102;11.620;2023-07-02T05:41:36;94894.38;;;25.02;44.06
22389;BME280;11362;48.102;11.620;2023-07-02T05:44:01;94896.38;;;25.02;44.06
22389;BME280;11362;48.102;11.620;2023-07-02T05:46:26;94891.94;;;25.04;44.02
22389;BME280;11362;48.102;11.620;2023-07-02T05:48:52;94900.28;;;25.04;44.11
22389;BME280;11362;48.102;11.620;2023-07-02T05:51:23;94897.50;;;25.04;44.12
22389;BME280;11362;48.102;11.620;2023-07-02T05:53:49;94904.63;;;25.05;44.07
22389;BME280;11362;48.102;11.620;2023-07-02T05:56:15;94902.63;;;25.06;43.90
22389;BME280;11362;48.102;11.620;2023-07-02T05:58:41;94903.06;;;25.04;44.02
22389;BME280;11362;48.102;11.620;2023-07-02T06:01:06;94905.84;;;25.04;43.94
22389;BME280;11362;48.102;11.620;2023-07-02T06:03:31;94904.28;;;25.03;43.91
22389;BME280;11362;48.102;11.620;2023-07-02T06:05:57;94905.84;;;25.04;44.08
22389;BME280;11362;48.102;11.620;2023-07-02T06:08:22;94901.50;;;25.03;44.01
22389;BME280;11362;48.102;11.620;2023-07-02T06:10:47;94903.84;;;25.05;43.79
22389;BME280;11362;48.102;11.620;2023-07-02T06:13:13;94903.06;;;25.04;44.02
22389;BME280;11362;48.102;11.620;2023-07-02T06:15:39;94908.94;;;25.06;44.09
22389;BME280;11362;48.102;11.620;2023-07-02T06:18:05;94908.94;;;25.06;44.12
22389;BME280;11362;48.102;11.620;2023-07-02T06:20:30;94907.41;;;25.05;44.14
22389;BME280;11362;48.102;11.620;2023-07-02T06:22:55;94916.19;;;25.04;44.03
22389;BME280;11362;48.102;11.620;2023-07-02T06:25:21;94904.63;;;25.05;44.25
22389;BME280;11362;48.102;11.620;2023-07-02T06:27:46;94909.84;;;25.03;44.25
22389;BME280;11362;48.102;11.620;2023-07-02T06:30:11;94911.41;;;25.04;43.92
22389;BME280;11362;48.102;11.620;2023-07-02T06:32:37;94912.63;;;25.03;43.94
22389;BME280;11362;48.102;11.620;2023-07-02T06:35:03;94916.94;;;25.04;44.24
22389;BME280;11362;48.102;11.620;2023-07-02T06:37:28;94928.88;;;25.05;44.02
22389;BME280;11362;48.102;11.620;2023-07-02T06:39:53;94926.84;;;25.05;43.81
22389;BME280;11362;48.102;11.620;2023-07-02T06:42:19;94925.28;;;25.04;43.92
22389;BME280;11362;48.102;11.620;2023-07-02T06:44:44;94927.66;;;25.06;43.93
22389;BME280;11362;48.102;11.620;2023-07-02T06:47:09;94914.97;;;25.05;43.93
22389;BME280;11362;48.102;11.620;2023-07-02T06:49:34;94924.06;;;25.05;44.26
22389;BME280;11362;48.102;11.620;2023-07-02T06:52:00;94931.97;;;25.07;43.98
22389;BME280;11362;48.102;11.620;2023-07-02T06:54:25;94930.00;;;25.07;44.25
22389;BME280;11362;48.102;11.620;2023-07-02T06:56:51;94927.22;;;25.07;44.03
22389;BME280;11362;48.102;11.620;2023-07-02T06:59:20;94939.53;;;25.06;44.15
22389;BME280;11362;48.102;11.620;2023-07-02T07:01:45;94943.88;;;25.07;43.98
22389;BME280;11362;48.102;11.620;2023-07-02T07:04:10;94944.31;;;25.06;43.93
22389;BME280;11362;48.102;11.620;2023-07-02T07:06:36;94947.88;;;25.06;44.06
22389;BME280;11362;48.102;11.620;2023-07-02T07:09:01;94944.66;;;25.08;44.09
22389;BME280;11362;48.102;11.620;2023-07-02T07:11:26;94950.63;;;25.06;43.87
22389;BME280;11362;48.102;11.620;2023-07-02T07:13:51;94944.75;;;25.04;44.05
22389;BME280;11362;48.102;11.620;2023-07-02T07:16:17;94947.88;;;25.06;44.10
22389;BME280;11362;48.102;11.620;2023-07-02T07:18:43;94954.63;;;25.05;43.80
22389;BME280;11362;48.102;11.620;2023-07-02T07:21:09;94947.88;;;25.06;43.79
22389;BME280;11362;48.102;11.620;2023-07-02T07:23:34;94958.13;;;25.09;44.03
22389;BME280;11362;48.102;11.620;2023-07-02T07:25:59;94957.34;;;25.09;43.87
22389;BME280;11362;48.102;11.620;2023-07-02T07:28:25;94959.69;;;25.10;44.49
22389;BME280;11362;48.102;11.620;2023-07-02T07:30:50;94955.69;;;25.11;43.80
22389;BME280;11362;48.102;11.620;2023-07-02T07:33:15;94954.47;;;25.12;44.22
22389;BME280;11362;48.102;11.620;2023-07-02T07:35:40;94964.38;;;25.13;44.10
22389;BME280;11362;48.102;11.620;2023-07-02T07:38:06;94961.16;;;25.15;44.52
22389;BME280;11362;48.102;11.620;2023-07-02T07:40:31;94958.72;;;25.17;44.55
22389;BME280;11362;48.102;11.620;2023-07-02T07:42:56;94966.97;;;25.20;44.99
22389;BME280;11362;48.102;11.620;2023-07-02T07:45:21;94969.31;;;25.22;45.20
22389;BME280;11362;48.102;11.620;2023-07-02T07:47:47;94971.25;;;25.25;45.20
22389;BME280;11362;48.102;11.620;2023-07-02T07:50:12;94970.81;;;25.26;45.97
22389;BME280;11362;48.102;11.620;2023-07-02T07:52:41;94975.16;;;25.27;46.15
22389;BME280;11362;48.102;11.620;2023-07-02T07:55:07;94980.31;;;25.29;45.85
22389;BME280;11362;48.102;11.620;2023-07-02T07:57:34;94982.66;;;25.30;45.96
22389;BME280;11362;48.102;11.620;2023-07-02T07:59:59;94988.22;;;25.30;46.20
22389;BME280;11362;48.102;11.620;2023-07-02T08:02:25;94986.66;;;25.29;45.66
22389;BME280;11362;48.102;11.620;2023-07-02T08:04:50;94994.00;;;25.20;44.88
22389;BME280;11362;48.102;11.620;2023-07-02T08:07:15;94985.84;;;25.13;45.11
22389;BME280;11362;48.102;11.620;2023-07-02T08:09:41;94973.91;;;25.12;45.13
22389;BME280;11362;48.102;11.620;2023-07-02T08:12:06;94968.81;;;25.11;44.89
22389;BME280;11362;48.102;11.620;2023-07-02T08:14:32;94982.44;;;25.05;45.05
22389;BME280;11362;48.102;11.620;2023-07-02T08:16:57;94985.75;;;25.00;44.66
22389;BME280;11362;48.102;11.620;2023-07-02T08:19:22;94980.78;;;24.92;44.83
22389;BME280;11362;48.102;11.620;2023-07-02T08:21:47;94983.91;;;24.94;44.74
22389;BME280;11362;48.102;11.620;2023-07-02T08:24:13;94984.75;;;24.75;44.80
22389;BME280;11362;48.102;11.620;2023-07-02T08:26:38;94983.53;;;24.76;44.89
22389;BME280;11362;48.102;11.620;2023-07-02T08:29:03;94991.09;;;24.75;44.79
22389;BME280;11362;48.102;11.620;2023-07-02T08:31:29;94991.09;;;24.75;44.89
22389;BME280;11362;48.102;11.620;2023-07-02T08:33:54;95001.50;;;24.71;45.06
22389;BME280;11362;48.102;11.620;2023-07-02T08:36:19;95000.78;;;24.67;44.95
22389;BME280;11362;48.102;11.620;2023-07-02T08:38:44;95001.34;;;24.78;44.92
22389;BME280;11362;48.102;11.620;2023-07-02T08:41:10;95003.66;;;24.80;44.76
22389;BME280;11362;48.102;11.620;2023-07-02T08:43:35;95011.56;;;24.65;45.29
22389;BME280;11362;48.102;11.620;2023-07-02T08:46:01;95013.72;;;24.54;45.51
22389;BME280;11362;48.102;11.620;2023-07-02T08:48:26;95013.28;;;24.59;45.42
22389;BME280;11362;48.102;11.620;2023-07-02T08:50:52;95014.75;;;24.64;45.13
22389;BME280;11362;48.102;11.620;2023-07-02T08:53:17;95014.91;;;24.57;45.34
22389;BME280;11362;48.102;11.620;2023-07-02T08:55:42;95014.56;;;24.35;45.79
22389;BME280;11362;48.102;11.620;2023-07-02T08:58:07;95019.38;;;24.31;46.01
22389;BME280;11362;48.102;11.620;2023-07-02T09:00:33;95013.13;;;24.47;45.67
22389;BME280;11362;48.102;11.620;2023-07-02T09:02:58;95017.72;;;24.53;45.55
22389;BME280;11362;48.102;11.620;2023-07-02T09:05:23;95017.38;;;24.51;45.69
22389;BME280;11362;48.102;11.620;2023-07-02T09:07:49;95016.03;;;24.40;45.94
22389;BME280;11362;48.102;11.620;2023-07-02T09:10:28;95020.72;;;24.43;46.26
22389;BME280;11362;48.102;11.620;2023-07-02T09:13:06;95023.16;;;24.41;46.17
22389;BME280;11362;48.102;11.620;2023-07-02T09:15:39;95020.88;;;24.55;45.67
22389;BME280;11362;48.102;11.620;2023-07-02T09:18:19;95027.00;;;24.66;45.71
22389;BME280;11362;48.102;11.620;2023-07-02T09:20:44;95027.28;;;24.72;45.66
22389;BME280;11362;48.102;11.620;2023-07-02T09:23:10;95027.97;;;24.76;45.50
22389;BME280;11362;48.102;11.620;2023-07-02T09:25:40;95023.56;;;24.78;45.51
22389;BME280;11362;48.102;11.620;2023-07-02T09:28:20;95025.13;;;24.79;45.85
22389;BME280;11362;48.102;11.620;2023-07-02T09:30:50;95025.41;;;24.85;45.43
22389;BME280;11362;48.102;11.620;2023-07-02T09:33:16;95015.41;;;24.87;45.55
22389;BME280;11362;48.102;11.620;2023-07-02T09:35:41;95023.69;;;24.91;45.57
22389;BME280;11362;48.102;11.620;2023-07-02T09:38:06;95022.88;;;24.90;45.62
22389;BME280;11362;48.102;11.620;2023-07-02T09:40:32;95035.56;;;24.91;45.89
22389;BME280;11362;48.102;11.620;2023-07-02T09:42:57;95032.25;;;24.80;46.22
22389;BME280;11362;48.102;11.620;2023-07-02T09:45:23;95037.25;;;24.69;46.49
22389;BME280;11362;48.102;11.620;2023-07-02T09:47:49;95030.47;;;24.70;46.07
22389;BME280;11362;48.102;11.620;2023-07-02T09:50:17;95028.69;;;24.80;46.00
22389;BME280;11362;48.102;11.620;2023-07-02T09:52:44;95030.94;;;24.85;46.29
22389;BME280;11362;48.102;11.620;2023-07-02T09:55:10;95040.44;;;24.87;45.99
22389;BME280;11362;48.102;11.620;2023-07-02T09:57:35;95036.09;;;24.86;46.25
22389;BME280;11362;48.102;11.620;2023-07-02T10:00:01;95040.09;;;24.85;46.47
22389;BME280;11362;48.102;11.620;2023-07-02T10:02:27;95039.28;;;24.85;46.37
22389;BME280;11362;48.102;11.620;2023-07-02T10:04:52;95031.75;;;24.85;45.75
22389;BME280;11362;48.102;11.620;2023-07-02T10:07:28;95028.53;;;24.87;46.10
22389;BME280;11362;48.102;11.620;2023-07-02T10:09:54;95024.59;;;24.84;46.13
22389;BME280;11362;48.102;11.620;2023-07-02T10:12:23;95029.44;;;24.64;45.82
22389;BME280;11362;48.102;11.620;2023-07-02T10:14:51;95019.97;;;24.62;45.84
22389;BME280;11362;48.102;11.620;2023-07-02T10:17:30;95026.81;;;24.57;45.76
22389;BME280;11362;48.102;11.620;2023-07-02T10:19:57;95024.84;;;24.54;45.85
22389;BME280;11362;48.102;11.620;2023-07-02T10:22:23;95025.06;;;24.63;45.69
22389;BME280;11362;48.102;11.620;2023-07-02T10:24:56;95030.38;;;24.74;45.81
22389;BME280;11362;48.102;11.620;2023-07-02T10:27:36;95017.13;;;24.81;45.93
22389;BME280;11362;48.102;11.620;2023-07-02T10:30:03;95014.19;;;24.72;45.88
22389;BME280;11362;48.102;11.620;2023-07-02T10:32:29;95007.38;;;24.57;45.88
22389;BME280;11362;48.102;11.620;2023-07-02T10:34:54;95008.72;;;24.49;46.20
22389;BME280;11362;48.102;11.620;2023-07-02T10:37:20;95015.91;;;24.47;46.45
22389;BME280;11362;48.102;11.620;2023-07-02T10:39:46;95009.28;;;24.60;46.73
22389;BME280;11362;48.102;11.620;2023-07-02T10:42:11;95017.28;;;24.74;46.49
22389;BME280;11362;48.102;11.620;2023-07-02T10:44:50;95012.00;;;24.80;47.05
22389;BME280;11362;48.102;11.620;2023-07-02T10:47:15;95015.16;;;24.82;47.30
22389;BME280;11362;48.102;11.620;2023-07-02T10:49:41;95011.31;;;24.76;47.04
22389;BME280;11362;48.102;11.620;2023-07-02T10:52:06;95014.03;;;24.79;47.74
22389;BME280;11362;48.102;11.620;2023-07-02T10:54:39;95005.53;;;24.86;47.94
22389;BME280;11362;48.102;11.620;2023-07-02T10:57:05;95004.16;;;24.94;48.02
22389;BME280;11362;48.102;11.620;2023-07-02T10:59:30;94994.16;;;24.97;48.70
22389;BME280;11362;48.102;11.620;2023-07-02T11:01:56;95002.94;;;24.95;48.27
22389;BME280;11362;48.102;11.620;2023-07-02T11:04:21;95000.91;;;24.96;48.43
22389;BME280;11362;48.102;11.620;2023-07-02T11:06:47;95000.31;;;25.04;48.55
22389;BME280;11362;48.102;11.620;2023-07-02T11:09:17;95012.81;;;24.96;47.78
22389;BME280;11362;48.102;11.620;2023-07-02T11:11:58;95003.69;;;24.96;48.11
22389;BME280;11362;48.102;11.620;2023-07-02T11:14:31;94991.22;;;25.04;47.98
22389;BME280;11362;48.102;11.620;2023-07-02T11:16:59;94993.91;;;25.07;47.60
22389;BME280;11362;48.102;11.620;2023-07-02T11:19:25;94981.75;;;25.01;47.79
22389;BME280;11362;48.102;11.620;2023-07-02T11:21:55;94990.84;;;25.02;47.21
22389;BME280;11362;48.102;11.620;2023-07-02T11:24:28;94998.34;;;24.69;46.42
22389;BME280;11362;48.102;11.620;2023-07-02T11:26:53;94983.19;;;24.54;46.62
22389;BME280;11362;48.102;11.620;2023-07-02T11:29:19;94982.56;;;24.66;46.14
22389;BME280;11362;48.102;11.620;2023-07-02T11:31:44;94983.13;;;24.58;46.54
22389;BME280;11362;48.102;11.620;2023-07-02T11:34:13;94976.94;;;24.50;46.55
22389;BME280;11362;48.102;11.620;2023-07-02T11:36:39;94976.94;;;24.50;46.74
22389;BME280;11362;48.102;11.620;2023-07-02T11:39:04;94977.38;;;24.49;46.91
22389;BME280;11362;48.102;11.620;2023-07-02T11:41:37;94970.41;;;24.60;46.62
22389;BME280;11362;48.102;11.620;2023-07-02T11:44:02;94970.31;;;24.64;46.86
22389;BME280;11362;48.102;11.620;2023-07-02T11:46:28;94967.13;;;24.65;46.89
22389;BME280;11362;48.102;11.620;2023-07-02T11:48:53;94963.13;;;24.66;47.16
22389;BME280;11362;48.102;11.620;2023-07-02T11:51:18;94962.41;;;24.62;47.19
22389;BME280;11362;48.102;11.620;2023-07-02T11:53:43;94963.63;;;24.61;47.27
22389;BME280;11362;48.102;11.620;2023-07-02T11:56:09;94956.25;;;24.71;46.65
22389;BME280;11362;48.102;11.620;2023-07-02T11:58:34;94953.75;;;24.76;46.48
22389;BME280;11362;48.102;11.620;2023-07-02T12:00:59;94959.31;;;24.76;46.26
22389;BME280;11362;48.102;11.620;2023-07-02T12:03:25;94954.63;;;24.73;46.41
22389;BME280;11362;48.102;11.620;2023-07-02T12:05:50;94958.25;;;24.70;46.21
22389;BME280;11362;48.102;11.620;2023-07-02T12:08:15;94951.06;;;24.73;45.89
22389;BME280;11362;48.102;11.620;2023-07-02T12:10:40;94945.50;;;24.73;46.11
22389;BME280;11362;48.102;11.620;2023-07-02T12:13:06;94943.94;;;24.72;45.70
22389;BME280;11362;48.102;11.620;2023-07-02T12:15:31;94941.59;;;24.70;45.99
22389;BME280;11362;48.102;11.620;2023-07-02T12:17:56;94936.75;;;24.74;46.27
22389;BME280;11362;48.102;11.620;2023-07-02T12:20:21;94943.50;;;24.73;45.91
22389;BME280;11362;48.102;11.620;2023-07-02T12:22:47;94941.88;;;24.76;45.79
22389;BME280;11362;48.102;11.620;2023-07-02T12:25:12;94933.09;;;24.77;45.50
22389;BME280;11362;48.102;11.620;2023-07-02T12:27:37;94936.75;;;24.74;45.35
22389;BME280;11362;48.102;11.620;2023-07-02T12:30:03;94936.75;;;24.74;45.19
22389;BME280;11362;48.102;11.620;2023-07-02T12:32:28;94927.91;;;24.79;45.00
22389;BME280;11362;48.102;11.620;2023-07-02T12:34:54;94927.81;;;24.83;45.10
22389;BME280;11362;48.102;11.620;2023-07-02T12:37:19;94922.19;;;24.86;44.88
22389;BME280;11362;48.102;11.620;2023-07-02T12:39:44;94929.63;;;24.89;44.80
22389;BME280;11362;48.102;11.620;2023-07-02T12:42:09;94920.88;;;24.91;44.87
22389;BME280;11362;48.102;11.620;2023-07-02T12:44:35;94923.31;;;24.89;45.09